Time;durP1;ratioP1;P1;durP2;ratioP2;P2;SDS_P1;SDS_P2;PMS_P1;PMS_P2;Temp;Humidity;BMP_temperature;BMP_pressure;BME280_temperature;BME280_humidity;BME280_pressure;Samples;Min_cycle;Max_cycle;Signal;HPM_P1;HPM_P2
2023/10/20 00:00:57;;;;;;;30.63;14.98;;;;;;;;;;5037798;28;20151;-62
2023/10/20 00:03:23;;;;;;;34.55;14.80;;;;;;;;;;5039098;28;20041;-62
2023/10/20 00:05:49;;;;;;;30.73;14.05;;;;;;;;;;5018592;28;20063;-62
2023/10/20 00:08:15;;;;;;;36.60;14.52;;;;;;;;;;5044586;28;20045;-62
2023/10/20 00:10:41;;;;;;;37.53;14.75;;;;;;;;;;5045639;28;20044;-62
2023/10/20 00:13:08;;;;;;;29.63;13.85;;;;;;;;;;5043121;28;20401;-62
2023/10/20 00:15:34;;;;;;;35.75;14.57;;;;;;;;;;5043313;28;20092;-62
2023/10/20 00:18:01;;;;;;;37.22;14.63;;;;;;;;;;5026226;28;20045;-62
2023/10/20 00:20:28;;;;;;;32.50;15.52;;;;;;;;;;5022746;28;20483;-62
2023/10/20 00:22:55;;;;;;;44.47;15.55;;;;;;;;;;5039867;28;20116;-62
2023/10/20 00:25:21;;;;;;;38.03;14.43;;;;;;;;;;5043287;28;20049;-62
2023/10/20 00:27:47;;;;;;;35.65;14.23;;;;;;;;;;5037658;28;20038;-62
2023/10/20 00:30:14;;;;;;;38.15;14.35;;;;;;;;;;5045608;28;20056;-62
2023/10/20 00:32:41;;;;;;;38.22;15.82;;;;;;;;;;5041791;28;20061;-62
2023/10/20 00:35:09;;;;;;;39.88;15.23;;;;;;;;;;5032538;28;20119;-62
2023/10/20 00:37:35;;;;;;;40.60;15.70;;;;;;;;;;5024915;28;20391;-62
2023/10/20 00:40:01;;;;;;;38.90;14.68;;;;;;;;;;5043033;28;20495;-62
2023/10/20 00:42:27;;;;;;;36.22;14.55;;;;;;;;;;5021416;28;20045;-62
2023/10/20 00:44:53;;;;;;;45.80;16.10;;;;;;;;;;5037878;28;20041;-62
2023/10/20 00:47:19;;;;;;;33.53;15.30;;;;;;;;;;5044503;28;20140;-62
2023/10/20 00:49:45;;;;;;;48.70;16.63;;;;;;;;;;5034452;28;20145;-62
2023/10/20 00:52:13;;;;;;;35.03;15.35;;;;;;;;;;5031313;28;20045;-62
2023/10/20 00:54:40;;;;;;;33.97;14.65;;;;;;;;;;5027610;28;20048;-62
2023/10/20 00:57:06;;;;;;;35.92;16.17;;;;;;;;;;5043924;28;20055;-62
2023/10/20 00:59:32;;;;;;;40.20;14.77;;;;;;;;;;5045381;28;20132;-62
2023/10/20 01:01:58;;;;;;;39.22;15.65;;;;;;;;;;5030753;28;20128;-62
2023/10/20 01:04:24;;;;;;;37.72;15.25;;;;;;;;;;5020836;28;20041;-62
2023/10/20 01:06:50;;;;;;;37.38;16.13;;;;;;;;;;5040832;28;20048;-63
2023/10/20 01:09:26;;;;;;;41.95;14.00;;;;;;;;;;5042764;28;20045;-63
2023/10/20 01:11:53;;;;;;;32.22;13.98;;;;;;;;;;5023442;28;20475;-62
2023/10/20 01:14:19;;;;;;;44.28;15.93;;;;;;;;;;5091903;22;21123;-62
2023/10/20 01:16:45;;;;;;;40.20;16.48;;;;;;;;;;5024232;28;20045;-62
2023/10/20 01:19:11;;;;;;;39.78;17.17;;;;;;;;;;5026112;28;20056;-63
2023/10/20 01:21:37;;;;;;;49.75;16.60;;;;;;;;;;5044735;28;20045;-63
2023/10/20 01:24:04;;;;;;;40.67;16.08;;;;;;;;;;5043945;28;20041;-62
2023/10/20 01:26:30;;;;;;;51.63;16.35;;;;;;;;;;5027012;28;20531;-63
2023/10/20 01:28:56;;;;;;;59.17;17.42;;;;;;;;;;5026461;28;20127;-63
2023/10/20 01:31:22;;;;;;;39.30;14.63;;;;;;;;;;5044307;28;20517;-63
2023/10/20 01:33:49;;;;;;;44.47;16.13;;;;;;;;;;5044033;28;20045;-62
2023/10/20 01:36:15;;;;;;;37.28;15.65;;;;;;;;;;5043876;28;20045;-63
2023/10/20 01:38:41;;;;;;;32.25;14.77;;;;;;;;;;5044136;28;20076;-63
2023/10/20 01:41:07;;;;;;;40.35;15.43;;;;;;;;;;5044385;28;20131;-63
2023/10/20 01:43:33;;;;;;;47.50;15.45;;;;;;;;;;5044423;28;20550;-62
2023/10/20 01:46:01;;;;;;;46.45;16.75;;;;;;;;;;5043910;28;20135;-63
2023/10/20 01:48:27;;;;;;;35.17;15.57;;;;;;;;;;5026173;28;20063;-62
2023/10/20 01:50:53;;;;;;;45.60;15.93;;;;;;;;;;5044038;28;20049;-63
2023/10/20 01:53:19;;;;;;;43.05;16.48;;;;;;;;;;5043817;28;20517;-63
2023/10/20 01:55:51;;;;;;;82.05;16.75;;;;;;;;;;5044106;28;20049;-63
2023/10/20 01:58:18;;;;;;;42.97;15.77;;;;;;;;;;5043059;28;20051;-63
2023/10/20 02:00:44;;;;;;;50.35;16.10;;;;;;;;;;5044474;28;20159;-63
2023/10/20 02:03:10;;;;;;;35.33;14.38;;;;;;;;;;5043606;28;20041;-63
2023/10/20 02:05:37;;;;;;;48.35;16.40;;;;;;;;;;5043922;28;20072;-63
2023/10/20 02:08:03;;;;;;;42.40;15.27;;;;;;;;;;5042996;28;20036;-63
2023/10/20 02:10:29;;;;;;;64.15;17.00;;;;;;;;;;5043614;28;20068;-63
2023/10/20 02:12:55;;;;;;;41.78;15.55;;;;;;;;;;5025959;28;20064;-63
2023/10/20 02:15:21;;;;;;;61.38;17.55;;;;;;;;;;5043295;28;20053;-63
2023/10/20 02:17:47;;;;;;;46.67;15.75;;;;;;;;;;5042912;28;20049;-63
2023/10/20 02:20:15;;;;;;;42.47;16.70;;;;;;;;;;5023613;28;20051;-63
2023/10/20 02:22:41;;;;;;;36.92;16.10;;;;;;;;;;5043643;28;20512;-63
2023/10/20 02:25:09;;;;;;;44.78;15.43;;;;;;;;;;5026249;28;20167;-62
2023/10/20 02:27:36;;;;;;;47.50;15.68;;;;;;;;;;5042780;28;20052;-63
2023/10/20 02:30:03;;;;;;;41.30;14.95;;;;;;;;;;5043053;28;20055;-62
2023/10/20 02:32:29;;;;;;;38.60;16.85;;;;;;;;;;5042205;28;20160;-63
2023/10/20 02:34:55;;;;;;;44.15;14.63;;;;;;;;;;5042754;28;20049;-63
2023/10/20 02:37:21;;;;;;;36.47;15.20;;;;;;;;;;5031316;28;20059;-63
2023/10/20 02:39:47;;;;;;;32.72;13.98;;;;;;;;;;5043571;28;20411;-62
2023/10/20 02:42:13;;;;;;;36.30;15.30;;;;;;;;;;5042299;28;20043;-63
2023/10/20 02:44:39;;;;;;;43.95;15.98;;;;;;;;;;5042979;28;20045;-62
2023/10/20 02:47:05;;;;;;;39.42;15.15;;;;;;;;;;5042349;28;20514;-63
2023/10/20 02:49:31;;;;;;;40.15;16.10;;;;;;;;;;5042823;28;20068;-63
2023/10/20 02:51:57;;;;;;;37.70;14.93;;;;;;;;;;5042202;28;20040;-63
2023/10/20 02:54:23;;;;;;;34.97;13.88;;;;;;;;;;5019914;28;20060;-63
2023/10/20 02:56:49;;;;;;;35.05;15.88;;;;;;;;;;5014970;28;20083;-63
2023/10/20 02:59:15;;;;;;;37.67;15.38;;;;;;;;;;5039751;28;20053;-63
2023/10/20 03:01:41;;;;;;;40.10;17.35;;;;;;;;;;5025353;28;20465;-63
2023/10/20 03:04:07;;;;;;;30.65;14.23;;;;;;;;;;5041707;28;20041;-62
2023/10/20 03:06:33;;;;;;;35.30;15.35;;;;;;;;;;5031635;28;20074;-62
2023/10/20 03:09:00;;;;;;;36.60;16.30;;;;;;;;;;5024128;28;20401;-62
2023/10/20 03:11:26;;;;;;;37.85;16.63;;;;;;;;;;5042649;28;20056;-63
2023/10/20 03:13:52;;;;;;;39.10;16.60;;;;;;;;;;5041884;28;20493;-63
2023/10/20 03:16:18;;;;;;;37.13;16.10;;;;;;;;;;5042378;28;20065;-63
2023/10/20 03:18:44;;;;;;;45.30;18.15;;;;;;;;;;5039921;28;20695;-63
2023/10/20 03:21:10;;;;;;;34.03;15.30;;;;;;;;;;5037068;28;20056;-63
2023/10/20 03:23:36;;;;;;;39.30;15.18;;;;;;;;;;5042614;28;20045;-63
2023/10/20 03:26:03;;;;;;;30.52;15.43;;;;;;;;;;5042657;28;20041;-63
2023/10/20 03:28:29;;;;;;;36.08;15.20;;;;;;;;;;5036171;28;20441;-63
2023/10/20 03:30:55;;;;;;;35.53;14.88;;;;;;;;;;5042218;28;20088;-63
2023/10/20 03:33:21;;;;;;;30.17;14.40;;;;;;;;;;5023563;28;20041;-63
2023/10/20 03:35:47;;;;;;;30.17;14.93;;;;;;;;;;5042626;28;20053;-63
2023/10/20 03:38:14;;;;;;;40.28;17.15;;;;;;;;;;5042673;28;20044;-63
2023/10/20 03:40:40;;;;;;;28.73;14.48;;;;;;;;;;5041505;28;20045;-62
2023/10/20 03:43:08;;;;;;;33.50;14.80;;;;;;;;;;5041779;28;20160;-63
2023/10/20 03:45:41;;;;;;;57.90;16.17;;;;;;;;;;5041708;28;20048;-63
2023/10/20 03:48:08;;;;;;;29.17;13.55;;;;;;;;;;5023812;28;20053;-63
2023/10/20 03:50:38;;;;;;;27.88;13.85;;;;;;;;;;5041473;28;20045;-63
2023/10/20 03:53:04;;;;;;;40.47;14.60;;;;;;;;;;5042002;28;20135;-63
2023/10/20 03:55:30;;;;;;;28.30;14.10;;;;;;;;;;5023560;28;20128;-63
2023/10/20 03:57:56;;;;;;;31.73;14.73;;;;;;;;;;5024768;28;20045;-63
2023/10/20 04:00:28;;;;;;;32.35;15.10;;;;;;;;;;5040929;28;20037;-63
2023/10/20 04:02:55;;;;;;;37.58;16.85;;;;;;;;;;5023656;28;20725;-63
2023/10/20 04:05:21;;;;;;;32.42;15.82;;;;;;;;;;5041809;28;20454;-63
2023/10/20 04:07:47;;;;;;;32.92;14.27;;;;;;;;;;5042624;28;20055;-63
2023/10/20 04:10:14;;;;;;;30.10;15.32;;;;;;;;;;5042268;28;20053;-63
2023/10/20 04:12:44;;;;;;;31.23;14.82;;;;;;;;;;5040068;28;20045;-62
2023/10/20 04:15:14;;;;;;;34.38;14.07;;;;;;;;;;5041846;28;20049;-62
2023/10/20 04:17:43;;;;;;;32.00;14.63;;;;;;;;;;5041444;28;20045;-62
2023/10/20 04:20:15;;;;;;;;;;;;;;;;;;5042112;28;20051;-62
2023/10/20 04:22:43;;;;;;;31.33;14.90;;;;;;;;;;5045204;28;19921;-62
2023/10/20 04:25:13;;;;;;;39.28;15.25;;;;;;;;;;5045523;28;20033;-62
2023/10/20 04:27:49;;;;;;;29.02;13.55;;;;;;;;;;5045498;28;20081;-62
2023/10/20 04:52:08;;;;;;;30.08;14.07;;;;;;;;;;5045294;28;20551;-63
2023/10/20 05:05:32;;;;;;;28.92;13.57;;;;;;;;;;5036295;28;20037;-63
2023/10/20 05:08:17;;;;;;;26.73;12.32;;;;;;;;;;5039643;28;20048;-64
2023/10/20 05:10:43;;;;;;;36.65;14.13;;;;;;;;;;5045398;28;20085;-64
2023/10/20 05:13:09;;;;;;;29.13;13.60;;;;;;;;;;5025967;28;20091;-64
2023/10/20 05:15:38;;;;;;;29.10;13.70;;;;;;;;;;5044452;28;20085;-64
2023/10/20 05:18:05;;;;;;;24.50;12.32;;;;;;;;;;5043567;28;20045;-63
2023/10/20 05:20:32;;;;;;;34.65;15.27;;;;;;;;;;5044893;28;20053;-62
2023/10/20 05:23:00;;;;;;;24.92;12.80;;;;;;;;;;5025991;28;20045;-63
2023/10/20 05:25:26;;;;;;;24.85;13.23;;;;;;;;;;5043617;28;20051;-62
2023/10/20 05:27:52;;;;;;;26.33;13.43;;;;;;;;;;5044528;28;20053;-63
2023/10/20 05:30:18;;;;;;;26.85;12.90;;;;;;;;;;5044893;28;20063;-62
2023/10/20 05:32:44;;;;;;;27.45;13.32;;;;;;;;;;5041877;28;20561;-62
2023/10/20 05:35:10;;;;;;;32.28;15.55;;;;;;;;;;5034607;28;20095;-65
2023/10/20 05:37:36;;;;;;;29.73;14.13;;;;;;;;;;5007285;28;20128;-62
2023/10/20 05:40:03;;;;;;;30.48;15.60;;;;;;;;;;5024200;28;20045;-62
2023/10/20 05:42:29;;;;;;;29.80;13.63;;;;;;;;;;5043397;28;20067;-61
2023/10/20 05:45:02;;;;;;;29.10;16.15;;;;;;;;;;5043815;28;20665;-62
2023/10/20 05:47:30;;;;;;;27.67;14.02;;;;;;;;;;5041537;28;20128;-61
2023/10/20 05:50:00;;;;;;;29.88;13.75;;;;;;;;;;5020091;28;20053;-62
2023/10/20 05:52:27;;;;;;;27.70;13.88;;;;;;;;;;5026431;28;20041;-63
2023/10/20 05:54:54;;;;;;;30.27;14.10;;;;;;;;;;5043994;28;20049;-63
2023/10/20 05:57:22;;;;;;;23.48;12.32;;;;;;;;;;5039332;28;20040;-64
2023/10/20 05:59:49;;;;;;;28.27;13.60;;;;;;;;;;5019125;28;20039;-63
2023/10/20 06:02:15;;;;;;;24.50;13.57;;;;;;;;;;5042122;28;20048;-63
2023/10/20 06:04:41;;;;;;;25.35;12.57;;;;;;;;;;5043351;28;20083;-64
2023/10/20 06:07:07;;;;;;;21.73;11.45;;;;;;;;;;5038685;28;20199;-62
2023/10/20 06:09:33;;;;;;;22.35;11.85;;;;;;;;;;5025482;28;20120;-61
2023/10/20 06:12:00;;;;;;;21.13;12.50;;;;;;;;;;5042981;28;20389;-62
2023/10/20 06:14:27;;;;;;;19.27;11.07;;;;;;;;;;5042780;28;20136;-62
2023/10/20 06:16:53;;;;;;;18.70;10.32;;;;;;;;;;5042398;28;20095;-62
2023/10/20 06:19:19;;;;;;;19.45;11.43;;;;;;;;;;5014313;28;20103;-62
2023/10/20 06:21:46;;;;;;;21.00;11.20;;;;;;;;;;5042564;28;20160;-62
2023/10/20 06:24:12;;;;;;;21.20;10.75;;;;;;;;;;5043528;28;20068;-62
2023/10/20 06:26:38;;;;;;;21.40;11.50;;;;;;;;;;5043619;28;20045;-62
2023/10/20 06:29:24;;;;;;;21.52;10.93;;;;;;;;;;5025284;28;20049;-62
2023/10/20 06:31:58;;;;;;;21.75;10.82;;;;;;;;;;5041900;28;20072;-62
2023/10/20 06:34:24;;;;;;;18.10;9.48;;;;;;;;;;5043887;28;20045;-62
2023/10/20 06:37:00;;;;;;;17.48;10.18;;;;;;;;;;5043341;28;20037;-62
2023/10/20 06:39:26;;;;;;;18.27;9.65;;;;;;;;;;5043081;28;20084;-62
2023/10/20 06:41:52;;;;;;;19.25;9.60;;;;;;;;;;5043826;28;20043;-62
2023/10/20 06:44:18;;;;;;;17.33;9.80;;;;;;;;;;5042843;28;20033;-62
2023/10/20 06:46:45;;;;;;;18.13;9.25;;;;;;;;;;5042458;28;20129;-62
2023/10/20 06:49:18;;;;;;;14.57;8.57;;;;;;;;;;5042981;28;20087;-62
2023/10/20 06:51:44;;;;;;;14.90;9.02;;;;;;;;;;5043052;28;20049;-62
2023/10/20 06:54:10;;;;;;;15.02;9.20;;;;;;;;;;5043098;28;20048;-62
2023/10/20 06:56:37;;;;;;;18.10;9.63;;;;;;;;;;5042766;28;20127;-62
2023/10/20 06:59:03;;;;;;;16.00;9.18;;;;;;;;;;5041669;28;20131;-62
2023/10/20 07:01:30;;;;;;;14.32;9.13;;;;;;;;;;5041197;28;20048;-63
2023/10/20 07:03:56;;;;;;;16.50;9.73;;;;;;;;;;5042251;28;20087;-62
2023/10/20 07:06:22;;;;;;;14.30;8.40;;;;;;;;;;5042692;28;20065;-62
2023/10/20 07:08:50;;;;;;;15.35;8.30;;;;;;;;;;5042801;28;20080;-62
2023/10/20 07:11:16;;;;;;;17.67;8.32;;;;;;;;;;5042937;28;20462;-62
2023/10/20 07:13:44;;;;;;;14.60;8.15;;;;;;;;;;5023915;28;20048;-62
2023/10/20 07:16:12;;;;;;;9.70;6.80;;;;;;;;;;5042650;28;20044;-62
2023/10/20 07:18:38;;;;;;;13.23;7.57;;;;;;;;;;5032856;28;20287;-62
2023/10/20 07:21:04;;;;;;;11.82;7.32;;;;;;;;;;5042480;28;20037;-62
2023/10/20 07:23:32;;;;;;;13.63;7.45;;;;;;;;;;5042107;28;20052;-63
2023/10/20 07:25:58;;;;;;;11.13;6.90;;;;;;;;;;5042762;28;20045;-62
2023/10/20 07:28:24;;;;;;;13.13;7.30;;;;;;;;;;5042655;28;20041;-62
2023/10/20 07:30:50;;;;;;;14.43;7.32;;;;;;;;;;5042126;28;20409;-62
2023/10/20 07:33:16;;;;;;;11.85;6.82;;;;;;;;;;5041765;28;20053;-62
2023/10/20 07:35:42;;;;;;;11.30;6.97;;;;;;;;;;5041777;28;20045;-62
2023/10/20 07:38:08;;;;;;;10.07;6.00;;;;;;;;;;5042529;28;20049;-62
2023/10/20 07:40:34;;;;;;;13.65;6.60;;;;;;;;;;5042405;28;20080;-62
2023/10/20 07:43:06;;;;;;;13.93;7.03;;;;;;;;;;5042412;28;20041;-62
2023/10/20 07:45:41;;;;;;;11.93;6.32;;;;;;;;;;5041332;28;20049;-62
2023/10/20 07:48:07;;;;;;;12.05;5.80;;;;;;;;;;5041536;28;20037;-62
2023/10/20 07:50:33;;;;;;;13.73;6.45;;;;;;;;;;5023724;28;20044;-62
2023/10/20 07:53:00;;;;;;;9.48;5.47;;;;;;;;;;5024922;28;20045;-61
2023/10/20 07:55:26;;;;;;;8.90;5.60;;;;;;;;;;5043243;28;20048;-61
2023/10/20 07:57:55;;;;;;;9.68;5.45;;;;;;;;;;5046175;28;20043;-62
2023/10/20 08:00:21;;;;;;;9.13;4.47;;;;;;;;;;5028236;28;20041;-62
2023/10/20 08:02:49;;;;;;;8.73;4.50;;;;;;;;;;5045844;28;20049;-62
2023/10/20 08:05:15;;;;;;;8.70;4.28;;;;;;;;;;5046091;28;20044;-62
2023/10/20 08:07:42;;;;;;;8.27;4.00;;;;;;;;;;5045946;28;20040;-62
2023/10/20 08:10:08;;;;;;;7.20;3.83;;;;;;;;;;5045485;28;20099;-62
2023/10/20 08:12:34;;;;;;;7.78;3.80;;;;;;;;;;5027953;28;20073;-62
2023/10/20 08:15:02;;;;;;;5.90;3.08;;;;;;;;;;5046314;28;20265;-62
2023/10/20 08:17:28;;;;;;;5.55;3.22;;;;;;;;;;5044755;28;20546;-62
2023/10/20 08:19:55;;;;;;;7.40;3.22;;;;;;;;;;5045637;28;20045;-62
2023/10/20 08:22:21;;;;;;;5.65;3.40;;;;;;;;;;5046152;28;20315;-62
2023/10/20 08:24:47;;;;;;;6.93;3.45;;;;;;;;;;5045303;28;20083;-62
2023/10/20 08:27:18;;;;;;;4.75;2.60;;;;;;;;;;5046421;28;20475;-62
2023/10/20 08:29:46;;;;;;;6.20;2.83;;;;;;;;;;5045766;28;20044;-62
2023/10/20 08:32:12;;;;;;;6.18;3.13;;;;;;;;;;5039035;28;20107;-62
2023/10/20 08:34:38;;;;;;;6.10;2.90;;;;;;;;;;5045740;28;20048;-62
2023/10/20 08:37:04;;;;;;;5.00;2.15;;;;;;;;;;5026943;28;20041;-62
2023/10/20 08:39:30;;;;;;;3.50;2.10;;;;;;;;;;5045027;28;20037;-61
2023/10/20 08:41:59;;;;;;;3.90;2.00;;;;;;;;;;5045199;28;20055;-61
2023/10/20 08:44:25;;;;;;;4.43;2.30;;;;;;;;;;5045479;28;20084;-61
2023/10/20 08:46:52;;;;;;;4.20;2.45;;;;;;;;;;5043919;28;20045;-62
2023/10/20 08:49:19;;;;;;;3.90;1.80;;;;;;;;;;5027237;28;20634;-62
2023/10/20 08:51:46;;;;;;;5.00;2.70;;;;;;;;;;5044470;28;20121;-61
2023/10/20 08:54:13;;;;;;;4.68;2.15;;;;;;;;;;5044843;28;20048;-61
2023/10/20 08:56:40;;;;;;;3.25;1.75;;;;;;;;;;5045207;28;20486;-62
2023/10/20 08:59:06;;;;;;;4.25;2.00;;;;;;;;;;5026959;28;20091;-62
2023/10/20 09:01:33;;;;;;;4.40;1.85;;;;;;;;;;5043921;28;20049;-62
2023/10/20 09:04:00;;;;;;;4.53;1.45;;;;;;;;;;5041028;28;20496;-62
2023/10/20 09:06:27;;;;;;;2.65;1.48;;;;;;;;;;5044351;28;20434;-62
2023/10/20 09:08:53;;;;;;;2.47;1.52;;;;;;;;;;5027418;28;20115;-62
2023/10/20 09:11:19;;;;;;;3.50;1.55;;;;;;;;;;5044722;28;20037;-62
2023/10/20 09:13:47;;;;;;;2.20;1.25;;;;;;;;;;5026686;28;20076;-62
2023/10/20 09:16:14;;;;;;;2.83;1.48;;;;;;;;;;5043948;28;20064;-62
2023/10/20 09:18:51;;;;;;;2.60;1.75;;;;;;;;;;5044744;28;20618;-61
2023/10/20 09:21:21;;;;;;;2.63;1.45;;;;;;;;;;5044001;28;20040;-61
2023/10/20 09:23:54;;;;;;;3.45;1.33;;;;;;;;;;5044641;28;20041;-61
2023/10/20 09:26:20;;;;;;;1.70;0.98;;;;;;;;;;5044190;28;20048;-62
2023/10/20 09:28:49;;;;;;;2.67;1.38;;;;;;;;;;5044818;28;20052;-61
2023/10/20 09:31:17;;;;;;;1.80;1.20;;;;;;;;;;5042805;28;20062;-61
2023/10/20 09:33:43;;;;;;;4.43;1.17;;;;;;;;;;5044596;28;20473;-61
2023/10/20 09:36:11;;;;;;;2.92;1.27;;;;;;;;;;5044540;28;20036;-62
2023/10/20 09:38:37;;;;;;;2.35;1.10;;;;;;;;;;5045048;28;20049;-62
2023/10/20 09:41:13;;;;;;;3.85;1.13;;;;;;;;;;5044187;28;20049;-62
2023/10/20 09:43:52;;;;;;;3.30;1.30;;;;;;;;;;5043913;28;20041;-62
2023/10/20 09:46:38;;;;;;;1.98;1.10;;;;;;;;;;5034319;28;20045;-62
2023/10/20 09:49:11;;;;;;;2.13;0.98;;;;;;;;;;5020253;28;20060;-62
2023/10/20 09:51:37;;;;;;;4.75;1.50;;;;;;;;;;5035167;28;20067;-62
2023/10/20 09:54:03;;;;;;;1.55;1.02;;;;;;;;;;5040528;28;20029;-62
2023/10/20 09:56:29;;;;;;;1.60;0.98;;;;;;;;;;5041326;28;20040;-62
2023/10/20 09:58:58;;;;;;;2.63;1.13;;;;;;;;;;5040736;28;20109;-61
2023/10/20 10:01:24;;;;;;;;;;;;;;;;;;5029775;28;20074;-62
2023/10/20 10:04:01;;;;;;;1.70;1.00;;;;;;;;;;5041042;28;20348;-62
2023/10/20 10:06:34;;;;;;;2.40;1.38;;;;;;;;;;5039156;28;20112;-64
2023/10/20 10:09:01;;;;;;;2.65;1.40;;;;;;;;;;5040781;28;20068;-62
2023/10/20 10:11:28;;;;;;;4.65;2.90;;;;;;;;;;5040694;28;20076;-62
2023/10/20 10:13:54;;;;;;;5.82;3.50;;;;;;;;;;5041048;28;20041;-62
2023/10/20 10:16:22;;;;;;;14.50;9.05;;;;;;;;;;5037840;28;20056;-62
2023/10/20 10:18:48;;;;;;;6.63;4.97;;;;;;;;;;5039829;28;20075;-62
2023/10/20 10:21:27;;;;;;;20.92;14.18;;;;;;;;;;5039570;28;20091;-62
2023/10/20 10:24:14;;;;;;;52.47;31.33;;;;;;;;;;5017001;28;20053;-61
2023/10/20 10:27:06;;;;;;;22.05;12.80;;;;;;;;;;5034658;28;20174;-62
2023/10/20 10:29:53;;;;;;;4.50;1.92;;;;;;;;;;5039284;28;20044;-62
2023/10/20 10:32:19;;;;;;;56.75;35.10;;;;;;;;;;5035110;28;20089;-61
2023/10/20 10:34:45;;;;;;;9.88;6.45;;;;;;;;;;5040614;28;20045;-62
2023/10/20 10:37:12;;;;;;;11.88;7.75;;;;;;;;;;5040165;28;20526;-62
2023/10/20 10:39:38;;;;;;;5.45;3.25;;;;;;;;;;5040304;28;20045;-62
2023/10/20 10:42:05;;;;;;;15.43;9.57;;;;;;;;;;5040139;28;20091;-62
2023/10/20 10:44:32;;;;;;;14.68;9.27;;;;;;;;;;5039834;28;20055;-62
2023/10/20 10:46:58;;;;;;;18.75;11.90;;;;;;;;;;5040043;28;20140;-62
2023/10/20 10:49:24;;;;;;;11.20;8.02;;;;;;;;;;5039811;28;20710;-62
2023/10/20 10:51:52;;;;;;;63.80;39.38;;;;;;;;;;5040383;28;20053;-62
2023/10/20 10:54:18;;;;;;;13.18;9.77;;;;;;;;;;5034550;28;20441;-62
2023/10/20 10:56:45;;;;;;;22.42;15.63;;;;;;;;;;5040559;28;20056;-62
2023/10/20 10:59:11;;;;;;;10.82;8.80;;;;;;;;;;5040431;28;20344;-61
2023/10/20 11:01:39;;;;;;;10.98;7.55;;;;;;;;;;5021372;28;20598;-62
2023/10/20 11:04:07;;;;;;;29.33;22.85;;;;;;;;;;5039864;28;20093;-62
2023/10/20 11:06:37;;;;;;;18.37;15.10;;;;;;;;;;5040423;28;20073;-61
2023/10/20 11:09:05;;;;;;;15.88;9.80;;;;;;;;;;5021944;28;20344;-62
2023/10/20 11:11:31;;;;;;;12.35;11.05;;;;;;;;;;5038439;28;20494;-62
2023/10/20 11:13:58;;;;;;;8.40;5.00;;;;;;;;;;5038831;28;20056;-62
2023/10/20 11:16:24;;;;;;;9.00;4.13;;;;;;;;;;5021555;28;20045;-61
2023/10/20 11:18:51;;;;;;;3.78;3.10;;;;;;;;;;5039575;28;20096;-62
2023/10/20 11:21:17;;;;;;;8.90;8.00;;;;;;;;;;5039610;28;20055;-62
2023/10/20 11:23:48;;;;;;;4.40;3.75;;;;;;;;;;5039609;28;20049;-61
2023/10/20 11:26:17;;;;;;;14.25;4.90;;;;;;;;;;5035010;28;20107;-65
2023/10/20 11:28:44;;;;;;;7.38;4.88;;;;;;;;;;5039062;28;20045;-60
2023/10/20 11:31:11;;;;;;;8.20;6.55;;;;;;;;;;5034836;28;20057;-60
2023/10/20 11:33:37;;;;;;;3.33;3.00;;;;;;;;;;5035064;28;20048;-60
2023/10/20 11:36:04;;;;;;;2.50;2.30;;;;;;;;;;5037460;28;20048;-60
2023/10/20 11:38:32;;;;;;;9.00;6.50;;;;;;;;;;5029354;28;20506;-60
2023/10/20 11:40:59;;;;;;;7.15;2.60;;;;;;;;;;5031393;28;20045;-60
2023/10/20 11:43:25;;;;;;;3.55;2.60;;;;;;;;;;5035129;28;20516;-61
2023/10/20 11:45:51;;;;;;;5.10;4.00;;;;;;;;;;5037759;28;20037;-61
2023/10/20 11:48:17;;;;;;;6.88;3.92;;;;;;;;;;5038671;28;20607;-61
2023/10/20 11:50:43;;;;;;;3.22;2.30;;;;;;;;;;5038666;28;20129;-61
2023/10/20 11:53:09;;;;;;;3.55;2.15;;;;;;;;;;5038310;28;20045;-61
2023/10/20 11:55:35;;;;;;;2.45;2.20;;;;;;;;;;5038776;28;20055;-61
2023/10/20 11:58:03;;;;;;;5.10;3.67;;;;;;;;;;5038835;28;20041;-62
2023/10/20 12:00:30;;;;;;;1.85;1.45;;;;;;;;;;5033652;28;20044;-61
2023/10/20 12:02:56;;;;;;;3.13;0.90;;;;;;;;;;5037962;28;20495;-61
2023/10/20 12:05:22;;;;;;;3.80;2.67;;;;;;;;;;5039736;28;20091;-61
2023/10/20 12:07:48;;;;;;;2.20;1.05;;;;;;;;;;5039210;28;20124;-62
2023/10/20 12:10:14;;;;;;;2.33;1.27;;;;;;;;;;5040053;28;20135;-61
2023/10/20 12:12:40;;;;;;;3.78;2.50;;;;;;;;;;5039327;28;20064;-61
2023/10/20 12:15:07;;;;;;;1.85;0.63;;;;;;;;;;5039487;28;20063;-61
2023/10/20 12:17:33;;;;;;;9.32;5.72;;;;;;;;;;5038379;28;20049;-61
2023/10/20 12:19:59;;;;;;;2.80;1.55;;;;;;;;;;5020748;28;20049;-61
2023/10/20 12:22:25;;;;;;;8.38;1.75;;;;;;;;;;5038957;28;20033;-60
2023/10/20 12:24:52;;;;;;;4.85;3.60;;;;;;;;;;5033798;28;20041;-62
2023/10/20 12:27:19;;;;;;;3.22;1.95;;;;;;;;;;5038797;28;20061;-62
2023/10/20 12:29:45;;;;;;;4.15;2.28;;;;;;;;;;5035806;28;20052;-60
2023/10/20 12:32:12;;;;;;;2.58;1.55;;;;;;;;;;5032686;28;20048;-61
2023/10/20 12:34:38;;;;;;;15.95;10.93;;;;;;;;;;5032688;28;20147;-60
2023/10/20 12:37:05;;;;;;;3.95;2.78;;;;;;;;;;5037395;28;20048;-60
2023/10/20 12:39:33;;;;;;;2.45;1.20;;;;;;;;;;5039900;28;20048;-60
2023/10/20 12:42:03;;;;;;;3.08;1.77;;;;;;;;;;5038609;28;20053;-60
2023/10/20 12:44:33;;;;;;;1.67;0.98;;;;;;;;;;5041911;28;20136;-60
2023/10/20 12:46:59;;;;;;;1.73;0.57;;;;;;;;;;5040882;28;20107;-60
2023/10/20 12:49:25;;;;;;;0.63;0.60;;;;;;;;;;5041100;28;20041;-60
2023/10/20 12:51:51;;;;;;;1.90;0.98;;;;;;;;;;5041757;28;20406;-60
2023/10/20 12:54:17;;;;;;;17.67;11.10;;;;;;;;;;5038529;28;20534;-59
2023/10/20 12:56:43;;;;;;;24.25;15.88;;;;;;;;;;5042068;28;20057;-64
2023/10/20 12:59:09;;;;;;;3.25;2.75;;;;;;;;;;5013715;28;20049;-61
2023/10/20 13:01:35;;;;;;;17.00;9.02;;;;;;;;;;5051894;28;20118;-61
2023/10/20 13:04:02;;;;;;;19.27;17.25;;;;;;;;;;5042995;28;20094;-61
2023/10/20 13:06:28;;;;;;;12.45;7.75;;;;;;;;;;5040997;28;20049;-62
2023/10/20 13:08:55;;;;;;;4.20;2.97;;;;;;;;;;5042003;28;20056;-61
2023/10/20 13:11:21;;;;;;;12.20;9.60;;;;;;;;;;5042075;28;20049;-62
2023/10/20 13:13:47;;;;;;;6.22;4.35;;;;;;;;;;5038532;28;20102;-62
2023/10/20 13:16:13;;;;;;;5.07;4.35;;;;;;;;;;5041831;28;20132;-61
2023/10/20 13:18:39;;;;;;;7.93;6.68;;;;;;;;;;5042257;28;20132;-61
2023/10/20 13:21:05;;;;;;;1.52;1.13;;;;;;;;;;5040399;28;20052;-62
2023/10/20 13:23:35;;;;;;;6.65;4.97;;;;;;;;;;5042481;28;20410;-61
2023/10/20 13:26:04;;;;;;;3.60;1.95;;;;;;;;;;5041513;28;20061;-61
2023/10/20 13:28:30;;;;;;;6.07;4.70;;;;;;;;;;5039581;28;20060;-62
2023/10/20 13:31:06;;;;;;;2.05;1.60;;;;;;;;;;5040645;28;20485;-62
2023/10/20 13:33:34;;;;;;;2.90;2.45;;;;;;;;;;5035253;28;20500;-62
2023/10/20 13:36:04;;;;;;;3.47;1.20;;;;;;;;;;5042539;28;20049;-62
2023/10/20 13:38:35;;;;;;;2.08;1.27;;;;;;;;;;5042213;28;20315;-63
2023/10/20 13:41:01;;;;;;;2.85;1.13;;;;;;;;;;5042426;28;20061;-61
2023/10/20 13:43:27;;;;;;;1.00;0.47;;;;;;;;;;5040090;28;20036;-62
2023/10/20 13:45:53;;;;;;;2.47;1.58;;;;;;;;;;5040345;28;20620;-61
2023/10/20 13:48:19;;;;;;;2.15;1.35;;;;;;;;;;5041783;28;20482;-62
2023/10/20 13:50:45;;;;;;;1.77;0.80;;;;;;;;;;5040609;28;20120;-60
2023/10/20 13:53:14;;;;;;;2.15;0.80;;;;;;;;;;5030266;28;20577;-60
2023/10/20 13:55:40;;;;;;;2.17;1.25;;;;;;;;;;5056658;28;20084;-61
2023/10/20 13:58:06;;;;;;;1.48;0.63;;;;;;;;;;5026564;28;20045;-61
2023/10/20 14:00:33;;;;;;;3.35;0.80;;;;;;;;;;5043673;28;20037;-61
2023/10/20 14:03:03;;;;;;;1.15;0.60;;;;;;;;;;5039856;28;20059;-60
2023/10/20 14:05:30;;;;;;;0.80;0.50;;;;;;;;;;5041403;28;20446;-62
2023/10/20 14:08:00;;;;;;;2.58;1.20;;;;;;;;;;5041955;28;20486;-62
2023/10/20 14:10:26;;;;;;;0.70;0.50;;;;;;;;;;5041528;28;20049;-62
2023/10/20 14:12:53;;;;;;;1.13;0.50;;;;;;;;;;5023316;28;20087;-63
2023/10/20 14:15:19;;;;;;;1.15;0.32;;;;;;;;;;5041003;28;20095;-63
2023/10/20 14:17:45;;;;;;;1.02;0.60;;;;;;;;;;5041378;28;20052;-62
2023/10/20 14:20:12;;;;;;;1.13;0.40;;;;;;;;;;5040694;28;20048;-62
2023/10/20 14:22:38;;;;;;;0.45;0.40;;;;;;;;;;5040386;28;20044;-63
2023/10/20 14:25:05;;;;;;;0.88;0.40;;;;;;;;;;5041170;28;20101;-63
2023/10/20 14:27:34;;;;;;;0.25;0.20;;;;;;;;;;5040928;28;20130;-62
2023/10/20 14:30:01;;;;;;;0.93;0.25;;;;;;;;;;5041690;28;20049;-62
2023/10/20 14:32:27;;;;;;;2.22;0.43;;;;;;;;;;5040122;28;20036;-62
2023/10/20 14:34:53;;;;;;;2.70;0.35;;;;;;;;;;5041302;28;20067;-62
2023/10/20 14:37:19;;;;;;;0.88;0.20;;;;;;;;;;5041255;28;20052;-61
2023/10/20 14:39:45;;;;;;;1.27;0.30;;;;;;;;;;5039291;28;20079;-63
2023/10/20 14:42:11;;;;;;;0.35;0.25;;;;;;;;;;5040554;28;20033;-62
2023/10/20 14:44:37;;;;;;;1.52;0.57;;;;;;;;;;5040489;28;20541;-62
2023/10/20 14:47:03;;;;;;;156.23;73.82;;;;;;;;;;5037822;28;20755;-62
2023/10/20 14:49:30;;;;;;;98.35;50.63;;;;;;;;;;5010967;28;20049;-62
2023/10/20 14:51:56;;;;;;;17.92;11.05;;;;;;;;;;5039922;28;20041;-62
2023/10/20 14:54:22;;;;;;;9.48;7.03;;;;;;;;;;5026852;28;20079;-62
2023/10/20 14:56:49;;;;;;;17.70;11.95;;;;;;;;;;5040252;28;20045;-62
2023/10/20 14:59:15;;;;;;;13.68;8.98;;;;;;;;;;5040778;28;20049;-61
2023/10/20 15:01:41;;;;;;;10.82;8.10;;;;;;;;;;5039024;28;20461;-62
2023/10/20 15:04:07;;;;;;;6.65;5.53;;;;;;;;;;5037927;28;20803;-61